Main page
METAR-TAF:

METAR-TAF

Airports :

Viru Viru International Airport

Viru-Viru, Bolivia

latitude: 17-38S, longitude: 063-08W, elevation: 373 m

Current weather observation

The report was made 27 minutes ago, at 00:00 UTC
Wind 2 kt from variable directions
Temperature 17°C
Humidity 82%
Pressure 1019 hPa
Visibility 10 km or more

METAR: SLVR 240000Z VRB02KT 9999 NSC 17/14 Q1019

Time: 20:27 (00:27 UTC)

Forecast

The report was made 1 hour and 42 minutes ago, at 22:45 UTC
Forecast valid from 24 at 00 UTC to 24 at 24 UTC
Wind 8 kt from the Southeast
Visibility 10 km or more
Becoming
from 24 at 15 UTC to 24 at 18 UTC
Wind 2 kt from variable directions
Few clouds at a height of 2000 ft

TAF: SLVR 232245Z 2400/2424 14008KT 9999 NSC TX27/2419Z TN17/2411Z BECMG 2415/2418 VRB02KT FEW020

Weather observations and forecasts of more than 4000 airports (METAR and TAF reports).

The available stations are represented by yellow and red dots on the map.

Hover mouse over dot to see the name of the station.

Then click to see weather observations and forecasts.

To change the map : click on the green buttons with a black cross to zoom in, on the green button with a dash to zoom out, or on the green arrows for adjacent maps.


METAR-TAF: